Time;durP1;ratioP1;P1;durP2;ratioP2;P2;SDS_P1;SDS_P2;PMS_P1;PMS_P2;Temp;Humidity;BMP_temperature;BMP_pressure;BME280_temperature;BME280_humidity;BME280_pressure;Samples;Min_cycle;Max_cycle;Signal;HPM_P1;HPM_P2
2022/03/23 00:22:09;;;;;;;;;;;;;;;;;;;;;
2022/03/23 00:48:39;;;;;;;35.53;15.13;;;;;;;3.50;78.98;102838.91;4821356;29;20055;-88
2022/03/23 01:09:27;;;;;;;39.63;16.65;;;;;;;3.24;81.04;102838.97;5365349;23;20468;-88
2022/03/23 01:12:06;;;;;;;40.50;17.10;;;;;;;3.20;81.36;102843.72;4921165;29;20055;-88
2022/03/23 01:14:31;;;;;;;39.93;17.53;;;;;;;3.16;82.11;102832.63;4933456;29;20323;-89
2022/03/23 01:20:22;;;;;;;38.90;16.17;;;;;;;2.98;81.30;102839.81;4930051;29;20086;-89
2022/03/23 01:23:44;;;;;;;;;;;;;;;;;;;;;
2022/03/23 01:45:49;;;;;;;36.10;16.25;;;;;;;2.83;83.86;102845.72;4948827;23;20138;-83
2022/03/23 01:48:14;;;;;;;42.17;16.83;;;;;;;2.80;83.93;102843.38;4931963;29;20039;-83
2022/03/23 01:50:40;;;;;;;34.37;15.90;;;;;;;2.76;83.85;102844.66;4934184;29;20189;-82
2022/03/23 01:53:06;;;;;;;33.05;14.85;;;;;;;2.72;83.77;102840.69;4934077;29;20091;-83
2022/03/23 01:55:31;;;;;;;35.50;15.87;;;;;;;2.70;84.22;102842.66;4924343;29;20028;-83
2022/03/23 01:57:56;;;;;;;32.97;15.00;;;;;;;2.68;84.31;102845.44;4914692;29;20036;-83
2022/03/23 02:00:22;;;;;;;31.73;15.13;;;;;;;2.65;84.09;102844.94;4928442;29;20063;-82
2022/03/23 02:02:47;;;;;;;35.67;16.13;;;;;;;2.60;84.13;102841.91;4932635;29;20055;-83
2022/03/23 02:05:13;;;;;;;34.23;16.07;;;;;;;2.59;84.07;102841.09;4927714;29;20539;-83
2022/03/23 02:07:39;;;;;;;35.15;15.93;;;;;;;2.61;84.58;102832.97;4928014;29;20035;-83
2022/03/23 02:10:06;;;;;;;38.33;16.33;;;;;;;2.55;84.44;102835.28;4914026;29;20032;-83
2022/03/23 02:12:31;;;;;;;37.00;16.20;;;;;;;2.53;84.81;102836.41;4913814;29;20032;-84
2022/03/23 02:14:58;;;;;;;36.87;15.63;;;;;;;2.50;84.87;102840.19;4932586;29;20031;-83
2022/03/23 02:17:24;;;;;;;36.08;15.82;;;;;;;2.50;85.25;102852.59;4919366;29;20056;-83
2022/03/23 02:19:49;;;;;;;40.30;16.35;;;;;;;2.45;85.59;102834.53;4914374;29;20028;-83
2022/03/23 02:22:15;;;;;;;37.97;17.17;;;;;;;2.41;85.47;102834.00;4897704;29;20123;-83
2022/03/23 02:24:40;;;;;;;35.97;16.77;;;;;;;2.36;85.75;102835.47;4897916;29;20414;-83
2022/03/23 02:27:07;;;;;;;35.70;15.35;;;;;;;2.30;85.85;102830.78;4927364;29;20032;-83
2022/03/23 02:29:33;;;;;;;35.95;16.52;;;;;;;2.21;85.92;102843.91;4919038;29;20040;-83
2022/03/23 02:32:01;;;;;;;46.00;18.13;;;;;;;2.16;86.89;102834.78;4933275;29;20118;-83
2022/03/23 02:34:26;;;;;;;35.40;15.60;;;;;;;2.12;86.79;102834.25;4918301;29;20032;-83
2022/03/23 02:36:52;;;;;;;39.72;16.63;;;;;;;2.07;86.45;102832.09;4925742;29;20530;-83
2022/03/23 02:39:18;;;;;;;38.55;16.10;;;;;;;2.07;86.57;102833.88;4934524;29;20040;-83
2022/03/23 02:41:43;;;;;;;35.97;16.67;;;;;;;2.01;87.10;102840.63;4933680;29;20086;-83
2022/03/23 02:44:14;;;;;;;39.03;16.67;;;;;;;1.98;87.21;102835.63;4920523;29;20024;-83
2022/03/23 02:46:39;;;;;;;36.53;16.83;;;;;;;1.90;86.94;102831.09;4922896;29;20055;-83
2022/03/23 02:49:07;;;;;;;33.60;15.83;;;;;;;1.89;87.00;102832.06;4933543;29;20299;-82
2022/03/23 02:51:32;;;;;;;37.87;16.93;;;;;;;1.94;87.52;102836.91;4929791;29;20034;-83
2022/03/23 03:02:46;;;;;;;36.23;14.83;;;;;;;1.78;86.86;102835.75;4926779;29;20066;-82
2022/03/23 03:05:12;;;;;;;37.30;16.77;;;;;;;1.79;87.53;102840.06;4934472;29;20338;-82
2022/03/23 03:10:23;;;;;;;38.65;15.77;;;;;;;1.71;87.33;102833.84;4913131;29;20131;-82
2022/03/23 03:12:50;;;;;;;35.97;16.27;;;;;;;1.64;87.51;102837.09;4914576;29;20034;-82
2022/03/23 03:15:18;;;;;;;38.33;16.05;;;;;;;1.64;87.71;102842.38;4914793;29;20024;-82
2022/03/23 03:17:44;;;;;;;37.55;16.00;;;;;;;1.58;88.25;102837.69;4922004;29;20054;-82
2022/03/23 03:20:10;;;;;;;38.67;15.85;;;;;;;1.54;88.25;102836.31;4928063;29;20051;-82
2022/03/23 03:22:40;;;;;;;39.95;16.38;;;;;;;1.52;88.74;102838.28;4920604;29;20115;-82
2022/03/23 03:25:07;;;;;;;36.80;16.00;;;;;;;1.50;89.29;102841.09;4929898;29;20027;-82
2022/03/23 03:27:35;;;;;;;39.30;17.10;;;;;;;1.48;89.49;102842.19;4913059;29;21763;-82
2022/03/23 03:30:07;;;;;;;42.03;16.70;;;;;;;1.51;89.40;102852.47;4915806;29;20502;-82
2022/03/23 03:32:32;;;;;;;46.35;16.77;;;;;;;1.49;89.17;102844.69;4922588;29;20044;-83
2022/03/23 03:34:58;;;;;;;37.63;17.10;;;;;;;1.49;89.12;102852.63;4932840;29;20038;-82
2022/03/23 03:37:23;;;;;;;40.05;16.38;;;;;;;1.50;89.40;102856.09;4925660;29;20031;-82
2022/03/23 03:39:49;;;;;;;39.20;16.77;;;;;;;1.53;89.07;102853.16;4918458;29;20024;-82
2022/03/23 03:42:14;;;;;;;37.13;16.33;;;;;;;1.50;89.26;102853.44;4930699;29;20085;-83
2022/03/23 03:44:40;;;;;;;40.93;16.93;;;;;;;1.49;89.12;102851.78;4917409;29;20028;-83
2022/03/23 03:47:05;;;;;;;43.80;17.17;;;;;;;1.46;89.22;102852.91;4927362;29;20032;-83
2022/03/23 03:49:31;;;;;;;43.13;16.23;;;;;;;1.44;88.92;102846.94;4915261;29;20521;-83
2022/03/23 03:51:57;;;;;;;44.33;18.20;;;;;;;1.40;89.13;102847.41;4923419;29;20043;-83
2022/03/23 03:54:22;;;;;;;38.63;17.50;;;;;;;1.41;89.60;102851.69;4932572;29;20020;-83
2022/03/23 03:56:47;;;;;;;44.40;17.20;;;;;;;1.36;89.01;102854.78;4921590;29;20032;-82
2022/03/23 03:59:13;;;;;;;36.73;16.60;;;;;;;1.33;89.33;102849.78;4919775;29;20037;-83
2022/03/23 04:01:39;;;;;;;41.70;17.35;;;;;;;1.32;89.69;102853.41;4912822;29;20639;-83
2022/03/23 04:04:04;;;;;;;40.57;17.03;;;;;;;1.25;89.85;102855.81;4912554;29;20047;-82
2022/03/23 04:06:30;;;;;;;41.30;17.35;;;;;;;1.27;89.60;102855.66;4929516;29;20036;-83
2022/03/23 04:08:55;;;;;;;42.90;17.07;;;;;;;1.25;89.74;102853.16;4913166;29;20039;-83
2022/03/23 04:11:21;;;;;;;39.27;17.87;;;;;;;1.27;89.41;102855.66;4922668;29;20031;-83
2022/03/23 04:13:46;;;;;;;44.72;17.63;;;;;;;1.27;89.64;102848.56;4915928;29;20512;-82
2022/03/23 04:16:12;;;;;;;44.13;18.00;;;;;;;1.29;89.68;102849.22;4906111;29;20036;-82
2022/03/23 04:18:37;;;;;;;43.23;17.57;;;;;;;1.29;89.29;102865.06;4924592;29;20032;-83
2022/03/23 04:21:02;;;;;;;39.57;16.53;;;;;;;1.22;88.89;102850.81;4935296;29;20307;-83
2022/03/23 04:23:28;;;;;;;40.40;16.73;;;;;;;1.20;89.06;102855.41;4922820;29;20564;-83
2022/03/23 04:25:53;;;;;;;39.83;16.40;;;;;;;1.13;88.67;102857.78;4914847;29;20061;-83
2022/03/23 04:28:20;;;;;;;39.80;16.40;;;;;;;1.10;89.06;102857.22;4916430;29;20534;-84
2022/03/23 04:30:46;;;;;;;40.25;16.45;;;;;;;1.07;89.02;102860.19;4917083;29;20357;-83
2022/03/23 04:33:11;;;;;;;44.13;18.25;;;;;;;1.05;89.33;102853.25;4915911;29;20031;-83
2022/03/23 04:35:37;;;;;;;44.03;17.73;;;;;;;1.07;89.37;102854.91;4916449;29;20479;-83
2022/03/23 04:38:02;;;;;;;45.07;17.47;;;;;;;1.04;89.46;102853.38;4916223;29;20032;-83
2022/03/23 04:40:28;;;;;;;43.93;17.33;;;;;;;1.02;89.16;102860.59;4914538;29;20051;-83
2022/03/23 04:42:53;;;;;;;41.17;17.80;;;;;;;0.98;89.22;102857.41;4914665;29;20499;-84
2022/03/23 04:45:19;;;;;;;42.30;17.27;;;;;;;0.88;89.07;102860.09;4916477;29;20084;-83
2022/03/23 04:47:45;;;;;;;39.35;17.63;;;;;;;0.87;89.65;102861.06;4916557;29;20036;-83
2022/03/23 04:50:12;;;;;;;43.75;18.15;;;;;;;0.86;89.60;102869.13;4916147;29;20028;-84
2022/03/23 04:52:41;;;;;;;40.77;17.30;;;;;;;0.85;90.02;102863.00;4916871;29;20028;-84
2022/03/23 04:55:09;;;;;;;40.03;16.97;;;;;;;0.83;89.82;102861.50;4916753;29;20303;-83
2022/03/23 04:57:34;;;;;;;41.28;17.65;;;;;;;0.81;89.89;102860.78;4915445;29;20024;-84
2022/03/23 04:59:59;;;;;;;41.33;17.90;;;;;;;0.78;90.05;102872.47;4908932;29;20071;-85
2022/03/23 05:02:26;;;;;;;37.70;16.73;;;;;;;0.79;90.03;102874.16;4914999;29;20729;-85
2022/03/23 05:04:51;;;;;;;40.40;16.47;;;;;;;0.71;89.48;102860.81;4916466;29;20116;-83
2022/03/23 05:07:17;;;;;;;43.03;17.43;;;;;;;0.66;89.65;102869.16;4915234;29;20308;-83
2022/03/23 05:09:42;;;;;;;44.03;18.03;;;;;;;0.59;89.78;102875.97;4915610;29;20028;-83
2022/03/23 05:12:08;;;;;;;48.23;17.60;;;;;;;0.50;89.80;102874.19;4916607;29;20484;-84
2022/03/23 05:14:34;;;;;;;42.60;18.02;;;;;;;0.48;90.62;102876.13;4916622;29;20024;-85
2022/03/23 05:17:00;;;;;;;45.30;18.67;;;;;;;0.51;91.39;102884.59;4915535;29;20032;-84
2022/03/23 05:19:25;;;;;;;43.47;17.37;;;;;;;0.56;90.95;102885.00;4916834;29;20028;-84
2022/03/23 05:21:50;;;;;;;44.47;18.13;;;;;;;0.62;90.72;102886.25;4916110;29;20031;-84
2022/03/23 05:24:16;;;;;;;43.40;17.43;;;;;;;0.60;90.23;102883.75;4918709;29;20036;-83
2022/03/23 05:26:41;;;;;;;44.73;17.87;;;;;;;0.57;90.19;102883.19;4919158;29;20083;-84
2022/03/23 05:29:07;;;;;;;44.43;18.53;;;;;;;0.53;90.25;102885.28;4917907;29;20028;-84
2022/03/23 05:31:32;;;;;;;40.25;17.23;;;;;;;0.49;90.80;102888.34;4918011;29;20168;-84
2022/03/23 05:33:57;;;;;;;42.70;17.70;;;;;;;0.42;91.01;102877.53;4916578;29;20036;-84
2022/03/23 05:36:23;;;;;;;42.93;17.83;;;;;;;0.41;90.59;102883.78;4916686;29;20119;-83
2022/03/23 05:38:49;;;;;;;39.88;17.50;;;;;;;0.38;90.41;102898.06;4917887;29;20028;-84
2022/03/23 05:41:14;;;;;;;46.40;18.87;;;;;;;0.34;90.78;102894.06;4917536;29;20032;-85
2022/03/23 05:43:39;;;;;;;46.20;18.63;;;;;;;0.37;90.82;102892.94;4917170;29;20144;-86
2022/03/23 05:46:04;;;;;;;50.17;17.87;;;;;;;0.39;91.16;102899.72;4919640;29;20020;-86
2022/03/23 05:48:30;;;;;;;43.67;18.13;;;;;;;0.45;91.23;102899.16;4919169;29;20087;-87
2022/03/23 05:50:55;;;;;;;45.17;18.60;;;;;;;0.50;91.32;102898.75;4924772;29;20065;-87
2022/03/23 05:53:20;;;;;;;45.43;18.10;;;;;;;0.55;91.22;102895.69;4926729;29;20547;-86
2022/03/23 05:55:46;;;;;;;46.43;19.00;;;;;;;0.61;90.93;102903.06;4941866;29;20020;-86
2022/03/23 05:58:11;;;;;;;44.17;18.03;;;;;;;0.61;90.98;102895.13;4927496;29;20068;-86
2022/03/23 06:00:36;;;;;;;45.90;17.60;;;;;;;0.64;90.84;102910.69;4928617;29;20115;-85
2022/03/23 06:03:02;;;;;;;48.27;18.33;;;;;;;0.65;90.82;102903.59;4927501;29;20731;-85
2022/03/23 06:05:27;;;;;;;45.17;18.10;;;;;;;0.69;90.89;102911.13;4926675;29;20029;-86
2022/03/23 06:07:52;;;;;;;42.40;18.13;;;;;;;0.69;90.91;102910.25;4926059;29;20199;-85
2022/03/23 06:10:18;;;;;;;45.53;18.97;;;;;;;0.71;91.24;102908.31;4924804;29;20052;-84
2022/03/23 06:12:43;;;;;;;46.90;18.98;;;;;;;0.78;90.81;102913.88;4919728;29;20035;-86
2022/03/23 06:15:10;;;;;;;44.90;17.77;;;;;;;0.83;90.52;102916.91;4915547;29;20052;-86
2022/03/23 06:17:36;;;;;;;41.92;18.42;;;;;;;0.91;90.75;102914.44;4917996;29;20051;-86
2022/03/23 06:20:03;;;;;;;48.40;18.30;;;;;;;0.97;90.74;102913.00;4916393;29;20369;-85
2022/03/23 06:22:28;;;;;;;51.22;19.38;;;;;;;0.99;90.82;102917.16;4915898;29;20186;-85
2022/03/23 06:24:53;;;;;;;47.00;18.93;;;;;;;1.02;89.92;102916.88;4915407;29;20719;-84
2022/03/23 06:27:19;;;;;;;40.90;17.67;;;;;;;1.07;90.10;102918.28;4916934;29;20320;-84
2022/03/23 06:29:44;;;;;;;45.43;19.23;;;;;;;1.12;90.15;102916.00;4914956;29;20055;-85
2022/03/23 06:32:09;;;;;;;48.20;19.43;;;;;;;1.16;90.49;102920.03;4913880;29;20028;-86
2022/03/23 06:34:35;;;;;;;46.63;18.85;;;;;;;1.23;89.95;102923.78;4915233;29;20373;-85
2022/03/23 06:37:01;;;;;;;45.87;18.07;;;;;;;1.26;89.89;102926.16;4915370;29;20111;-86
2022/03/23 06:39:28;;;;;;;40.75;18.65;;;;;;;1.31;90.33;102929.16;4915642;29;20024;-89
2022/03/23 06:41:54;;;;;;;45.77;19.47;;;;;;;1.34;89.99;102926.25;4912936;29;20428;-85
2022/03/23 06:44:19;;;;;;;45.40;20.23;;;;;;;1.42;90.11;102928.16;4914306;29;20308;-86
2022/03/23 06:46:45;;;;;;;51.23;21.30;;;;;;;1.50;89.67;102930.94;4914302;29;20117;-87
2022/03/23 06:49:12;;;;;;;51.10;20.48;;;;;;;1.57;89.58;102936.47;4914125;29;20094;-87
2022/03/23 06:51:37;;;;;;;52.70;20.57;;;;;;;1.60;89.77;102941.47;4913407;29;20106;-87
2022/03/23 06:54:03;;;;;;;49.40;20.83;;;;;;;1.64;89.60;102939.34;4914215;29;20300;-87
2022/03/23 06:56:28;;;;;;;51.03;20.50;;;;;;;1.65;89.60;102939.19;4914393;29;20044;-86
2022/03/23 06:58:53;;;;;;;58.23;21.93;;;;;;;1.75;90.23;102941.78;4914806;29;20439;-87
2022/03/23 07:01:19;;;;;;;52.80;21.50;;;;;;;1.80;89.36;102944.00;4913240;29;20296;-87
2022/03/23 07:03:44;;;;;;;53.37;22.80;;;;;;;1.86;90.53;102934.66;4912930;29;20117;-87
2022/03/23 07:06:09;;;;;;;54.63;21.20;;;;;;;1.94;90.23;102932.09;4914693;29;20038;-86
2022/03/23 07:11:22;;;;;;;43.47;20.98;;;;;;;2.02;89.87;102947.22;4895138;29;20078;-87
2022/03/23 07:13:48;;;;;;;49.67;21.20;;;;;;;2.12;90.01;102945.34;4897406;29;20059;-87
2022/03/23 07:16:13;;;;;;;54.70;22.10;;;;;;;2.24;89.94;102954.72;4912038;29;20074;-87
2022/03/23 07:18:39;;;;;;;52.53;21.30;;;;;;;2.34;89.79;102953.84;4915005;29;20076;-86
2022/03/23 07:21:04;;;;;;;49.75;21.73;;;;;;;2.49;88.47;102952.34;4914880;29;20476;-86
2022/03/23 07:23:31;;;;;;;54.83;22.63;;;;;;;2.69;88.54;102953.00;4913099;29;20024;-87
2022/03/23 07:25:56;;;;;;;54.88;24.02;;;;;;;2.82;88.90;102952.63;4914989;29;20610;-88
2022/03/23 07:28:22;;;;;;;61.93;23.80;;;;;;;2.94;88.90;102955.84;4914992;29;20028;-87
2022/03/23 07:30:47;;;;;;;58.08;24.83;;;;;;;3.09;89.59;102952.63;4913585;29;20036;-86
2022/03/23 07:33:12;;;;;;;56.83;23.90;;;;;;;3.31;89.10;102964.53;4911815;29;20538;-86
2022/03/23 07:35:38;;;;;;;58.23;25.17;;;;;;;3.51;88.45;102956.34;4896862;29;20028;-87
2022/03/23 07:38:03;;;;;;;52.33;23.33;;;;;;;3.69;88.00;102966.91;4918619;29;20032;-86
2022/03/23 07:40:28;;;;;;;53.67;23.93;;;;;;;3.82;87.30;102964.63;4904311;29;20398;-87
2022/03/23 07:42:54;;;;;;;47.37;23.73;;;;;;;3.97;87.12;102962.19;4898916;29;20032;-87
2022/03/23 07:45:19;;;;;;;58.83;24.73;;;;;;;4.13;86.51;102961.41;4907322;29;20591;-87
2022/03/23 07:47:45;;;;;;;49.57;23.17;;;;;;;4.23;85.93;102963.91;4911479;29;20704;-87
2022/03/23 07:50:10;;;;;;;45.87;22.43;;;;;;;4.38;84.59;102964.13;4913158;29;20024;-88
2022/03/23 07:52:36;;;;;;;45.03;21.25;;;;;;;4.51;83.54;102971.59;5029166;23;20038;-88
2022/03/23 07:55:01;;;;;;;43.93;21.97;;;;;;;4.59;82.44;102976.91;4935154;29;20495;-88
2022/03/23 07:57:27;;;;;;;46.38;21.42;;;;;;;4.66;81.43;102961.13;4920393;29;20098;-87
2022/03/23 07:59:55;;;;;;;47.03;22.80;;;;;;;4.83;81.02;102975.25;4938833;29;20515;-88
2022/03/23 08:02:22;;;;;;;43.38;21.30;;;;;;;4.97;80.88;102977.25;4923281;29;20035;-89
2022/03/23 08:04:47;;;;;;;46.97;21.88;;;;;;;5.10;80.22;102983.91;4945433;28;20035;-86
2022/03/23 08:07:12;;;;;;;47.03;22.63;;;;;;;5.21;79.54;102988.84;4950937;29;20032;-86
2022/03/23 08:09:37;;;;;;;44.93;21.67;;;;;;;5.36;78.67;102989.00;4947945;28;20038;-85
2022/03/23 08:12:03;;;;;;;44.03;21.93;;;;;;;5.48;77.86;102992.09;4946989;29;20406;-85
2022/03/23 08:14:28;;;;;;;44.15;21.77;;;;;;;5.62;76.80;102987.91;4951137;29;20041;-85
2022/03/23 08:16:54;;;;;;;49.87;20.90;;;;;;;5.74;77.13;102986.56;4951529;29;20019;-86
2022/03/23 08:19:23;;;;;;;47.27;20.50;;;;;;;5.89;76.48;102984.00;4951571;29;20031;-85
2022/03/23 08:21:49;;;;;;;41.20;20.70;;;;;;;5.98;75.40;102987.44;4947731;28;20031;-85
2022/03/23 08:24:15;;;;;;;46.85;21.58;;;;;;;6.11;75.18;102986.09;4932398;29;20383;-86
2022/03/23 08:26:40;;;;;;;44.60;21.53;;;;;;;6.22;74.84;102980.38;4943668;28;20039;-85
2022/03/23 08:29:05;;;;;;;41.57;21.07;;;;;;;6.39;74.90;102989.06;4945727;28;20019;-86
2022/03/23 08:31:31;;;;;;;45.17;21.52;;;;;;;6.56;73.09;102981.00;4946426;29;20031;-87
2022/03/23 08:33:56;;;;;;;44.83;21.53;;;;;;;6.64;72.83;102975.59;4958804;28;20063;-84
2022/03/23 08:36:21;;;;;;;46.43;21.73;;;;;;;6.75;73.05;102987.66;4950686;28;20082;-85
2022/03/23 08:38:46;;;;;;;42.03;21.43;;;;;;;6.86;73.24;102983.75;4951259;29;20390;-85
2022/03/23 08:41:13;;;;;;;39.20;20.93;;;;;;;6.96;72.33;102978.97;4951595;29;20023;-84
2022/03/23 08:43:38;;;;;;;44.30;20.98;;;;;;;7.12;71.46;102983.34;4949541;29;20062;-84
2022/03/23 08:46:04;;;;;;;44.33;21.80;;;;;;;7.20;71.21;102983.28;4951788;29;20479;-84
2022/03/23 08:48:29;;;;;;;47.15;21.80;;;;;;;7.27;71.28;102986.03;4952646;29;20122;-84
2022/03/23 08:50:55;;;;;;;49.67;21.60;;;;;;;7.39;70.29;102984.56;4958110;29;20051;-84
2022/03/23 08:53:20;;;;;;;42.73;20.53;;;;;;;7.54;69.51;102989.91;4958796;29;20103;-84
2022/03/23 08:55:46;;;;;;;45.78;21.25;;;;;;;7.67;69.39;102983.09;4957239;29;20023;-84
2022/03/23 08:58:12;;;;;;;42.53;22.00;;;;;;;7.82;69.05;102989.25;4962267;28;20031;-84
2022/03/23 09:00:40;;;;;;;44.97;20.57;;;;;;;7.93;68.82;102987.13;4955587;29;20431;-85
2022/03/23 09:03:06;;;;;;;40.70;21.25;;;;;;;8.04;67.48;102986.63;4953839;29;20031;-84
2022/03/23 09:05:31;;;;;;;46.70;22.10;;;;;;;8.15;66.74;102986.13;4950935;29;20498;-86
2022/03/23 09:07:56;;;;;;;39.35;20.50;;;;;;;8.33;65.74;102987.56;4953057;29;20035;-86
2022/03/23 09:10:23;;;;;;;43.10;21.33;;;;;;;8.46;65.46;102985.03;4937218;29;20447;-87
2022/03/23 09:12:48;;;;;;;51.10;22.00;;;;;;;8.62;66.07;102989.31;4942409;29;20081;-88
2022/03/23 09:15:16;;;;;;;42.03;21.57;;;;;;;8.77;65.81;102993.75;4954415;28;20035;-87
2022/03/23 09:17:42;;;;;;;41.53;21.10;;;;;;;8.86;64.83;102984.59;4955082;28;20129;-87
2022/03/23 09:20:10;;;;;;;45.92;21.50;;;;;;;9.02;64.53;102982.66;4962505;29;20083;-87
2022/03/23 09:22:36;;;;;;;39.50;21.20;;;;;;;9.19;63.92;102978.66;4963056;29;20050;-88
2022/03/23 09:25:06;;;;;;;40.70;20.87;;;;;;;9.33;63.22;102990.28;4964592;28;20051;-87
2022/03/23 09:27:42;;;;;;;45.15;20.67;;;;;;;9.55;61.94;102998.25;4967088;29;20023;-87
2022/03/23 09:30:11;;;;;;;38.83;18.02;;;;;;;9.70;59.33;102996.25;4971878;29;20054;-87
2022/03/23 09:32:36;;;;;;;39.80;20.25;;;;;;;9.90;58.23;102989.31;4960731;29;20411;-87
2022/03/23 09:35:02;;;;;;;35.40;17.87;;;;;;;10.00;56.22;102985.25;4962407;28;20035;-88
2022/03/23 09:40:14;;;;;;;46.00;19.88;;;;;;;10.29;57.65;102994.00;4941644;28;20058;-87
2022/03/23 09:42:42;;;;;;;51.20;20.00;;;;;;;10.51;54.25;102996.50;4956482;29;20049;-87
2022/03/23 09:45:07;;;;;;;43.15;20.40;;;;;;;10.57;55.01;102994.91;4952947;28;20089;-87
2022/03/23 09:47:33;;;;;;;34.78;17.83;;;;;;;10.64;55.26;102989.53;4945397;28;20531;-87
2022/03/23 09:49:58;;;;;;;37.57;18.63;;;;;;;10.73;53.29;102983.78;4939838;28;20163;-88
2022/03/23 09:52:24;;;;;;;35.60;18.90;;;;;;;10.95;50.43;102983.56;4953080;28;20174;-87
2022/03/23 09:54:49;;;;;;;35.72;18.85;;;;;;;11.09;50.25;102992.41;4954718;28;20028;-87
2022/03/23 10:06:08;;;;;;;40.22;19.85;;;;;;;11.74;52.07;102993.50;5258088;23;20063;-88
2022/03/23 10:09:05;;;;;;;40.30;20.00;;;;;;;11.79;52.55;102993.69;4901817;29;20048;-89
2022/03/23 10:12:04;;;;;;;44.08;20.40;;;;;;;12.02;52.87;102989.69;4907308;29;20036;-87
2022/03/23 10:14:30;;;;;;;38.03;20.93;;;;;;;12.12;50.46;102995.41;4915026;29;20032;-87
2022/03/23 10:17:49;;;;;;;44.63;20.13;;;;;;;12.20;51.96;102991.66;4915187;29;20311;-86
2022/03/23 10:20:14;;;;;;;43.60;21.27;;;;;;;12.40;50.82;102994.25;4915020;29;20114;-86
2022/03/23 10:22:48;;;;;;;40.40;20.63;;;;;;;12.61;49.00;103005.66;4913492;29;20850;-85
2022/03/23 10:25:13;;;;;;;38.33;20.42;;;;;;;12.70;46.39;102986.34;4914588;29;20103;-86
2022/03/23 10:27:39;;;;;;;39.03;20.23;;;;;;;12.73;47.46;102990.47;4915313;29;20118;-85
2022/03/23 10:30:06;;;;;;;41.27;20.20;;;;;;;12.77;45.94;102980.94;4915363;29;21004;-85
2022/03/23 10:32:38;;;;;;;37.40;19.83;;;;;;;12.91;47.45;102989.69;4915136;29;20115;-86
2022/03/23 10:35:10;;;;;;;42.75;19.42;;;;;;;13.02;45.72;102983.59;4918810;29;20536;-87
2022/03/23 10:37:35;;;;;;;37.50;18.67;;;;;;;13.20;44.54;102981.13;4914360;29;20052;-86
2022/03/23 10:40:08;;;;;;;37.43;19.20;;;;;;;13.28;44.61;102978.97;4912081;29;20402;-86
2022/03/23 10:42:37;;;;;;;38.37;20.07;;;;;;;13.42;44.61;102979.69;4909670;29;20449;-87
2022/03/23 10:45:16;;;;;;;40.90;18.83;;;;;;;13.48;43.72;102977.97;4910583;29;20296;-86
2022/03/23 10:47:42;;;;;;;39.40;19.52;;;;;;;13.77;41.27;102973.69;4908661;29;20032;-88
2022/03/23 10:50:14;;;;;;;33.60;18.65;;;;;;;13.91;42.34;102984.28;4914729;29;20083;-87
2022/03/23 10:52:54;;;;;;;34.70;19.92;;;;;;;14.01;40.98;102971.09;4913380;29;20032;-87
2022/03/23 10:55:22;;;;;;;34.40;18.27;;;;;;;14.16;40.84;102978.75;4914028;29;20416;-89
2022/03/23 10:57:50;;;;;;;36.63;19.35;;;;;;;14.29;41.50;102976.94;4909858;29;20062;-88
2022/03/23 11:00:17;;;;;;;37.77;19.40;;;;;;;14.41;39.27;102972.38;4894992;29;20040;-87
2022/03/23 11:02:48;;;;;;;37.90;18.90;;;;;;;14.57;39.14;102978.16;4878219;29;20352;-88
2022/03/23 11:05:33;;;;;;;39.75;20.83;;;;;;;14.75;39.59;102972.69;4917432;29;20031;-88
2022/03/23 11:08:22;;;;;;;36.83;20.70;;;;;;;14.79;40.34;102967.66;4922549;29;20036;-88
2022/03/23 11:15:46;;;;;;;37.00;18.70;;;;;;;15.19;37.15;102968.81;4926076;29;20046;-87
2022/03/23 11:16:52;;;;;;;38.60;19.60;;;;;;;15.32;35.75;102965.03;4940085;29;20042;-86
2022/03/23 11:19:19;;;;;;;34.10;18.70;;;;;;;15.52;34.65;102959.22;4933954;29;20054;-88
2022/03/23 11:22:05;;;;;;;33.03;18.58;;;;;;;15.70;35.59;102963.66;4930322;29;20041;-87
2022/03/23 11:24:36;;;;;;;33.85;18.77;;;;;;;15.87;35.43;102959.16;4933733;29;20444;-88
2022/03/23 11:27:02;;;;;;;38.63;21.40;;;;;;;15.97;36.90;102955.81;4929965;29;20459;-88
2022/03/23 11:29:30;;;;;;;35.40;19.83;;;;;;;16.06;34.49;102958.94;4932841;29;20327;-88
2022/03/23 11:31:57;;;;;;;39.05;19.38;;;;;;;16.13;33.13;102958.78;4933089;29;20594;-88
2022/03/23 11:34:23;;;;;;;37.72;20.00;;;;;;;16.19;34.49;102952.38;4933017;29;20051;-89
2022/03/23 11:36:51;;;;;;;38.08;19.80;;;;;;;16.32;33.93;102960.22;4933449;29;20028;-88
2022/03/23 11:39:19;;;;;;;34.70;18.75;;;;;;;16.37;33.59;102962.19;4932046;29;20027;-88
2022/03/23 11:41:46;;;;;;;39.20;19.30;;;;;;;16.45;32.18;102953.63;4936191;29;20387;-88
2022/03/23 11:44:16;;;;;;;35.58;18.55;;;;;;;16.46;31.26;102954.47;4933118;29;20488;-88
2022/03/23 11:46:43;;;;;;;36.38;18.95;;;;;;;16.58;33.98;102948.97;4931346;29;20114;-86
2022/03/23 11:49:33;;;;;;;33.10;19.27;;;;;;;16.72;32.89;102949.44;4932893;29;20390;-85
2022/03/23 11:52:18;;;;;;;33.87;18.33;;;;;;;16.85;34.25;102943.69;4932460;29;20530;-86
2022/03/23 11:57:56;;;;;;;29.38;14.95;;;;;;;17.02;32.31;102932.03;4935804;29;20506;-86
2022/03/23 12:00:26;;;;;;;29.00;16.65;;;;;;;17.06;30.85;102931.28;4935780;29;20031;-90
2022/03/23 12:02:53;;;;;;;28.08;16.58;;;;;;;17.03;29.52;102934.50;4940840;29;20028;-87
2022/03/23 12:05:34;;;;;;;24.15;15.63;;;;;;;17.16;30.52;102924.38;4932882;29;20029;-90
2022/03/23 12:08:00;;;;;;;29.20;17.10;;;;;;;17.31;29.73;102927.28;4951158;29;20056;-91
2022/03/23 12:10:29;;;;;;;32.17;17.13;;;;;;;17.42;28.39;102920.09;4943454;29;20023;-89
2022/03/23 12:12:55;;;;;;;32.72;18.00;;;;;;;17.50;29.72;102932.38;4939047;29;20102;-88
2022/03/23 12:15:23;;;;;;;32.58;17.50;;;;;;;17.63;29.18;102918.41;4936803;29;20111;-88
2022/03/23 12:17:54;;;;;;;28.65;17.25;;;;;;;17.70;29.08;102927.16;4937924;29;20040;-89
2022/03/23 12:20:37;;;;;;;28.27;16.50;;;;;;;17.69;28.99;102924.69;4939143;29;20543;-92
2022/03/23 12:23:15;;;;;;;25.17;15.32;;;;;;;17.76;28.26;102913.66;4937985;29;20027;-90
2022/03/23 12:25:52;;;;;;;26.52;16.23;;;;;;;17.79;28.75;102913.13;4933882;29;20455;-86
2022/03/23 12:28:32;;;;;;;21.00;14.15;;;;;;;17.93;28.03;102914.34;4933821;29;20119;-85
2022/03/23 12:30:57;;;;;;;22.57;14.57;;;;;;;17.98;26.69;102910.94;4938180;29;20043;-85
2022/03/23 12:33:26;;;;;;;29.10;15.40;;;;;;;18.09;27.44;102918.06;4936522;29;20771;-84
2022/03/23 12:35:57;;;;;;;26.30;14.97;;;;;;;18.20;27.01;102908.13;4935785;29;20032;-85
2022/03/23 12:38:28;;;;;;;24.77;15.02;;;;;;;18.39;27.40;102903.09;4936694;29;20083;-86
2022/03/23 12:41:01;;;;;;;30.63;16.35;;;;;;;18.43;25.76;102903.41;4936422;29;20423;-86
2022/03/23 12:43:39;;;;;;;24.40;14.80;;;;;;;18.38;28.27;102906.06;4954822;29;20028;-88
2022/03/23 12:46:16;;;;;;;27.20;15.45;;;;;;;18.24;26.41;102908.41;4940734;29;20024;-89
2022/03/23 12:57:52;;;;;;;25.30;13.75;;;;;;;18.49;24.54;102888.78;4935210;29;20102;-86
2022/03/23 13:00:29;;;;;;;30.03;14.97;;;;;;;18.44;26.09;102880.63;4950742;29;20028;-87
2022/03/23 13:03:18;;;;;;;22.73;14.83;;;;;;;18.64;26.59;102884.50;4934097;29;20327;-86
2022/03/23 13:05:57;;;;;;;23.58;14.45;;;;;;;18.74;25.93;102887.31;4933717;29;20032;-86
2022/03/23 13:08:50;;;;;;;26.13;14.75;;;;;;;18.67;25.67;102884.00;4934146;29;20031;-86
2022/03/23 13:11:20;;;;;;;24.60;14.70;;;;;;;18.75;26.31;102880.78;4931671;29;20055;-86
2022/03/23 13:13:50;;;;;;;28.55;14.73;;;;;;;18.76;26.25;102871.56;4933053;29;20111;-85
2022/03/23 13:16:21;;;;;;;23.58;13.75;;;;;;;18.93;26.16;102871.34;4933614;29;20149;-92
2022/03/23 13:18:47;;;;;;;25.42;14.90;;;;;;;19.02;25.11;102868.97;4937193;29;20027;-86
2022/03/23 13:21:19;;;;;;;22.27;14.80;;;;;;;19.22;24.89;102866.34;4934509;29;20084;-84
2022/03/23 13:23:47;;;;;;;24.73;14.55;;;;;;;19.26;24.71;102863.09;4940268;29;20093;-87
2022/03/23 13:26:16;;;;;;;27.05;16.20;;;;;;;19.13;24.55;102858.97;4939468;29;20030;-91
2022/03/23 13:28:44;;;;;;;24.48;14.63;;;;;;;19.11;24.75;102856.53;4936668;29;20044;-93